Kaohsiung International Airport
RCKH : now visible

Airfield :











YOU CAN JOIN US ON...

 
LOGIN :

Register | Disclaimer

   EN    FR    IT 

 









Legend :    VFR   Marginal VFR   IFR   Intensive IFR   Very Intensive IFR
Visi :
Ceiling :
>= 8 km
>= 3000ft
5 to 8 km
1000 to 3000 ft
1500m to 5 km
500 to 1000 ft
800 to 1500m
200 to 500 ft
< 800m
< 200 ft
Symbols :   Thunderstorms  Fog  Heavy snow  Heavy precipitations  Wind > 20 kt







- Airport Elevation : 31 ft
- IATA code : KHH


RCKH - Kaohsiung International

CURRENT METAR :
  • 260630Z 20007KT 170V240 9999 FEW015 SCT050 BKN120 33/20 Q1008 NOSIG RMK A2978

EXPIRED METARs :
  • 260600Z 27003KT 210V330 9999 FEW015 BKN050 BKN120 33/22 Q1008 NOSIG RMK A2979
  • 260530Z 25004KT 180V350 9999 FEW015 SCT050 BKN120 32/20 Q1009 NOSIG RMK A2980
  • 260500Z 26006KT 140V300 9999 FEW015 SCT045 BKN120 31/22 Q1009 NOSIG RMK A2982
  • 260430Z 27004KT 230V290 9999 FEW015 SCT045 BKN100 31/22 Q1009 NOSIG RMK A2982
  • 260400Z 24006KT 210V290 9000 FEW015 SCT050 BKN100 31/24 Q1010 NOSIG RMK A2984

TAF TAF RCKH
Valid from the 26 at 06:00 until the 27 at 12:00 UTC


260500Z 2606/2712 27010KT 9999 FEW015 SCT050 BKN080
TEMPO 2606/2610 23010KT 5000 SHRA FEW012 FEW015TCU BKN020 BKN050
BECMG 2610/2612 17005KT FEW012 BKN032 BKN060
TEMPO 2618/2624 05005KT 5000 RA FEW010 FEW015CB BKN020 BKN050
BECMG 2700/2702 25010KT
TEMPO 2706/2710 30008KT 5000 SHRA FEW012 FEW015TCU BKN020 BKN050
RCAA FIR / Asia



MET'MAP, your aeronautical weather chart ! - Copyright ORBIFLY December 2007 - Disclaimer

ORBIFLY MET'MAP TEAM :

Programming & Development : Alexandra Zaïnal
Concept & Development : Baudouin d'Aumeries
Co-Development & Prog : Marc-Olivier Méhu
Technical & hardware support : Manuel Goepfert

Contact : metmap@orbifly.com




SOURCES & CREDITS :

   NOAA       Earth
Advisory